createdAt,value
2023-04-21T00:02:27.453Z,101174.38
2023-04-21T00:04:56.362Z,101187.81
2023-04-21T00:07:23.600Z,101176.88
2023-04-21T00:09:50.475Z,101167.19
2023-04-21T00:12:17.432Z,101195.38
2023-04-21T00:14:44.432Z,101178.13
2023-04-21T00:17:11.350Z,101181.88
2023-04-21T00:19:42.224Z,101192.59
2023-04-21T00:22:14.701Z,101165.06
2023-04-21T00:24:41.672Z,101162.38
2023-04-21T00:27:08.604Z,101162.09
2023-04-21T00:29:35.634Z,101149.84
2023-04-21T00:32:03.803Z,101127.09
2023-04-21T00:34:31.201Z,101126.13
2023-04-21T00:36:58.152Z,101141.00
2023-04-21T00:39:25.742Z,101140.81
2023-04-21T00:41:52.770Z,101153.06
2023-04-21T00:44:19.678Z,101134.78
2023-04-21T00:46:47.076Z,101144.34
2023-04-21T00:49:15.062Z,101158.25
2023-04-21T00:51:42.482Z,101121.94
2023-04-21T00:54:10.958Z,101159.50
2023-04-21T00:56:37.955Z,101148.47
2023-04-21T00:59:04.915Z,101129.59
2023-04-21T01:01:34.232Z,101147.69
2023-04-21T01:04:01.703Z,101134.41
2023-04-21T01:06:34.715Z,101126.06
2023-04-21T01:09:06.474Z,101110.44
2023-04-21T01:11:33.431Z,101119.53
2023-04-21T01:14:00.692Z,101117.53
2023-04-21T01:16:28.062Z,101121.28
2023-04-21T01:18:55.063Z,101112.44
2023-04-21T01:21:22.560Z,101129.41
2023-04-21T01:23:49.469Z,101138.69
2023-04-21T01:26:22.933Z,101128.91
2023-04-21T01:28:50.188Z,101135.22
2023-04-21T01:31:18.237Z,101129.19
2023-04-21T01:33:45.975Z,101135.53
2023-04-21T01:36:13.073Z,101099.94
2023-04-21T01:38:43.157Z,101151.72
2023-04-21T01:41:11.011Z,101147.50
2023-04-21T01:43:38.319Z,101143.06
2023-04-21T01:46:06.655Z,101150.28
2023-04-21T01:48:33.697Z,101119.78
2023-04-21T01:51:00.678Z,101123.72
2023-04-21T01:53:27.651Z,101114.78
2023-04-21T01:55:54.609Z,101114.88
2023-04-21T01:58:22.030Z,101132.13
2023-04-21T02:00:49.064Z,101098.00
2023-04-21T02:03:16.175Z,101108.16
2023-04-21T02:05:45.987Z,101119.78
2023-04-21T02:08:12.931Z,101120.97
2023-04-21T02:10:41.325Z,101117.94
2023-04-21T02:13:11.932Z,101128.97
2023-04-21T02:15:39.023Z,101113.94
2023-04-21T02:18:08.304Z,101088.63
2023-04-21T02:20:35.382Z,101136.91
2023-04-21T02:23:02.357Z,101117.38
2023-04-21T02:25:29.815Z,101132.25
2023-04-21T02:27:56.954Z,101107.25
2023-04-21T02:30:26.989Z,101144.41
2023-04-21T02:32:54.176Z,101135.69
2023-04-21T02:35:21.325Z,101118.34
2023-04-21T02:37:48.357Z,101117.69
2023-04-21T02:40:15.817Z,101144.25
2023-04-21T02:42:42.960Z,101146.06
2023-04-21T02:45:11.192Z,101146.94
2023-04-21T02:47:38.179Z,101144.94
2023-04-21T02:50:05.765Z,101132.25
2023-04-21T02:52:38.765Z,101151.81
2023-04-21T02:55:06.246Z,101156.44
2023-04-21T02:57:33.224Z,101156.34
2023-04-21T03:00:00.433Z,101145.78
2023-04-21T03:02:27.524Z,101132.53
2023-04-21T03:04:54.566Z,101154.50
2023-04-21T03:07:21.637Z,101128.25
2023-04-21T03:09:48.564Z,101145.03
2023-04-21T03:12:15.710Z,101113.88
2023-04-21T03:14:44.607Z,101152.22
2023-04-21T03:17:11.524Z,101114.38
2023-04-21T03:19:38.451Z,101118.88
2023-04-21T03:22:05.508Z,101154.53
2023-04-21T03:24:32.858Z,101142.66
2023-04-21T03:27:00.097Z,101142.66
2023-04-21T03:29:27.191Z,101147.91
2023-04-21T03:31:54.266Z,101134.88
2023-04-21T03:34:21.914Z,101125.31
2023-04-21T03:36:48.919Z,101154.28
2023-04-21T03:39:20.333Z,101152.53
2023-04-21T03:41:49.270Z,101149.94
2023-04-21T03:44:16.197Z,101153.69
2023-04-21T03:46:43.121Z,101139.75
2023-04-21T03:49:10.209Z,101134.69
2023-04-21T03:51:37.154Z,101130.78
2023-04-21T03:54:04.126Z,101152.34
2023-04-21T03:56:31.065Z,101136.91
2023-04-21T03:58:58.047Z,101145.63
2023-04-21T04:01:24.986Z,101128.47
2023-04-21T04:03:52.103Z,101144.97
2023-04-21T04:06:19.090Z,101134.31
2023-04-21T04:08:46.432Z,101143.91
2023-04-21T04:11:13.344Z,101131.84
2023-04-21T04:13:40.273Z,101121.19
2023-04-21T04:16:07.701Z,101125.69
2023-04-21T04:18:34.780Z,101118.03
2023-04-21T04:21:08.245Z,101125.88
2023-04-21T04:23:35.460Z,101107.69
2023-04-21T04:26:05.545Z,101097.25
2023-04-21T04:28:32.598Z,101093.78
2023-04-21T04:31:00.677Z,101119.38
2023-04-21T04:33:27.768Z,101110.66
2023-04-21T04:35:54.809Z,101123.78
2023-04-21T04:38:23.011Z,101118.31
2023-04-21T04:40:57.715Z,101110.25
2023-04-21T04:43:25.579Z,101105.28
2023-04-21T04:45:52.622Z,101081.22
2023-04-21T04:48:19.788Z,101138.44
2023-04-21T04:50:46.748Z,101132.88
2023-04-21T04:53:13.857Z,101127.13
2023-04-21T04:55:40.762Z,101120.63
2023-04-21T04:58:07.751Z,101113.31
2023-04-21T05:00:34.805Z,101104.94
2023-04-21T05:03:04.521Z,101106.19
2023-04-21T05:05:31.617Z,101099.59
2023-04-21T05:07:58.586Z,101127.19
2023-04-21T05:10:25.734Z,101126.03
2023-04-21T05:12:52.643Z,101109.25
2023-04-21T05:15:20.184Z,101113.38
2023-04-21T05:17:47.189Z,101144.03
2023-04-21T05:20:14.163Z,101107.56
2023-04-21T05:22:41.381Z,101126.53
2023-04-21T05:25:11.445Z,101139.38
2023-04-21T05:27:38.453Z,101115.88
2023-04-21T05:30:05.858Z,101114.28
2023-04-21T05:32:32.834Z,101114.38
2023-04-21T05:35:00.319Z,101129.69
2023-04-21T05:37:27.721Z,101106.13
2023-04-21T05:39:54.879Z,101108.19
2023-04-21T05:42:21.998Z,101114.13
2023-04-21T05:44:48.919Z,101110.16
2023-04-21T05:47:15.820Z,101109.84
2023-04-21T05:49:49.766Z,101114.63
2023-04-21T05:52:17.812Z,101078.97
2023-04-21T05:54:44.860Z,101108.59
2023-04-21T05:57:11.842Z,101125.06
2023-04-21T05:59:38.979Z,101111.63
2023-04-21T06:02:06.065Z,101112.72
2023-04-21T06:04:33.339Z,101121.84
2023-04-21T06:07:07.259Z,101132.72
2023-04-21T06:09:35.430Z,101137.59
2023-04-21T06:12:03.346Z,101123.13
2023-04-21T06:14:30.382Z,101124.66
2023-04-21T06:16:57.368Z,101123.25
2023-04-21T06:19:24.501Z,101136.91
2023-04-21T06:21:51.594Z,101109.91
2023-04-21T06:24:25.013Z,101109.91
2023-04-21T06:26:53.133Z,101122.78
2023-04-21T06:29:20.827Z,101155.09
2023-04-21T06:31:48.088Z,101115.28
2023-04-21T06:34:15.677Z,101111.81
2023-04-21T06:36:42.672Z,101128.59
2023-04-21T06:39:09.568Z,101123.97
2023-04-21T06:41:36.460Z,101132.91
2023-04-21T06:44:03.401Z,101114.22
2023-04-21T06:46:30.422Z,101121.75
2023-04-21T06:48:57.361Z,101097.31
2023-04-21T06:51:24.261Z,101110.00
2023-04-21T06:53:51.210Z,101117.09
2023-04-21T06:56:18.133Z,101109.66
2023-04-21T06:58:46.825Z,101102.03
2023-04-21T07:01:13.844Z,101085.56
2023-04-21T07:03:41.138Z,101101.34
2023-04-21T07:06:08.331Z,101105.28
2023-04-21T07:08:35.415Z,101108.38
2023-04-21T07:11:02.362Z,101101.69
2023-04-21T07:13:29.482Z,101073.19
2023-04-21T07:15:56.856Z,101082.06
2023-04-21T07:18:23.762Z,101079.50
2023-04-21T07:20:50.939Z,101077.09
2023-04-21T07:23:18.296Z,101076.22
2023-04-21T07:25:45.317Z,101086.81
2023-04-21T07:28:15.052Z,101067.00
2023-04-21T07:30:42.215Z,101076.22
2023-04-21T07:33:09.353Z,101078.53
2023-04-21T07:35:36.314Z,101062.56
2023-04-21T07:38:03.235Z,101088.34
2023-04-21T07:40:31.181Z,101069.03
2023-04-21T07:42:58.127Z,101076.03
2023-04-21T07:45:26.253Z,101076.00
2023-04-21T07:47:53.348Z,101085.94
2023-04-21T07:50:20.544Z,101081.94
2023-04-21T07:52:48.094Z,101063.38
2023-04-21T07:55:15.195Z,101074.28
2023-04-21T07:57:42.158Z,101075.34
2023-04-21T08:00:10.711Z,101066.44
2023-04-21T08:02:40.759Z,101064.41
2023-04-21T08:05:08.789Z,101076.69
2023-04-21T08:07:36.096Z,101080.06
2023-04-21T08:10:03.138Z,101070.47
2023-04-21T08:12:30.340Z,101071.53
2023-04-21T08:14:57.266Z,101054.16
2023-04-21T08:17:24.345Z,101072.06
2023-04-21T08:19:52.101Z,101060.16
2023-04-21T08:22:19.032Z,101050.50
2023-04-21T08:24:46.003Z,101061.84
2023-04-21T08:27:13.020Z,101059.69
2023-04-21T08:29:40.029Z,101079.25
2023-04-21T08:32:07.397Z,101056.06
2023-04-21T08:34:34.823Z,101054.50
2023-04-21T08:37:01.787Z,101049.09
2023-04-21T08:39:29.449Z,101067.66
2023-04-21T08:41:58.522Z,101060.16
2023-04-21T08:44:26.216Z,101050.44
2023-04-21T08:46:56.196Z,101051.16
2023-04-21T08:49:24.456Z,101054.16
2023-04-21T08:51:51.378Z,101063.44
2023-04-21T08:54:18.292Z,101049.97
2023-04-21T08:56:45.260Z,101052.50
2023-04-21T08:59:18.654Z,101048.31
2023-04-21T09:02:11.373Z,101054.41
2023-04-21T09:04:40.795Z,101055.34
2023-04-21T09:07:09.064Z,101033.91
2023-04-21T09:09:56.290Z,101042.16
2023-04-21T09:12:23.911Z,101042.50
2023-04-21T09:14:51.454Z,101035.63
2023-04-21T09:17:22.158Z,101043.66
2023-04-21T09:19:49.170Z,101034.28
2023-04-21T09:22:19.562Z,101034.44
2023-04-21T09:24:57.526Z,101019.56
2023-04-21T09:27:24.439Z,101029.81
2023-04-21T09:29:51.547Z,101035.56
2023-04-21T09:32:19.702Z,101028.16
2023-04-21T09:34:47.250Z,101027.53
2023-04-21T09:37:17.382Z,101027.38
2023-04-21T09:40:03.542Z,101019.38
2023-04-21T09:42:33.327Z,101002.19
2023-04-21T09:47:40.355Z,101005.69
2023-04-21T09:50:12.541Z,101016.78
2023-04-21T09:52:41.540Z,101017.31
2023-04-21T09:55:12.902Z,101012.22
2023-04-21T09:57:43.023Z,101012.16
2023-04-21T10:00:13.474Z,100979.72
2023-04-21T10:02:50.197Z,100994.28
2023-04-21T10:05:17.688Z,101003.03
2023-04-21T10:07:46.346Z,100967.47
2023-04-21T10:10:28.358Z,100995.28
2023-04-21T10:12:55.795Z,100977.22
2023-04-21T10:15:40.523Z,100978.00
2023-04-21T10:18:20.140Z,100991.44
2023-04-21T10:21:02.630Z,100982.16
2023-04-21T10:23:38.727Z,100974.88
2023-04-21T10:26:35.869Z,100973.16
2023-04-21T10:29:06.245Z,100975.72
2023-04-21T10:31:53.858Z,100963.16
2023-04-21T10:34:36.088Z,100954.28
2023-04-21T10:37:06.187Z,100965.38
2023-04-21T10:39:36.674Z,100950.50
2023-04-21T10:42:25.127Z,100953.00
2023-04-21T10:44:57.834Z,100972.84
2023-04-21T10:47:52.934Z,100953.59
2023-04-21T10:50:22.498Z,100958.75
2023-04-21T10:53:13.300Z,100935.78
2023-04-21T10:55:42.233Z,100950.38
2023-04-21T10:58:10.013Z,100938.41
2023-04-21T11:00:40.587Z,100926.97
2023-04-21T11:03:08.352Z,100920.97
2023-04-21T11:05:41.122Z,100922.75
2023-04-21T11:08:17.017Z,100906.16
2023-04-21T11:10:55.965Z,100925.16
2023-04-21T11:13:25.741Z,100912.88
2023-04-21T11:16:06.387Z,100917.94
2023-04-21T11:18:45.597Z,100909.38
2023-04-21T11:21:18.644Z,100913.09
2023-04-21T11:23:56.822Z,100909.63
2023-04-21T11:26:31.725Z,100911.06
2023-04-21T11:29:02.186Z,100892.53
2023-04-21T11:31:30.994Z,100885.41
2023-04-21T11:34:00.741Z,100876.09
2023-04-21T11:36:27.964Z,100872.63
2023-04-21T11:38:54.878Z,100886.94
2023-04-21T11:41:23.602Z,100868.44
2023-04-21T11:43:52.050Z,100854.28
2023-04-21T11:46:29.248Z,100863.31
2023-04-21T11:49:16.983Z,100846.63
2023-04-21T11:51:44.687Z,100858.34
2023-04-21T11:54:13.914Z,100847.53
2023-04-21T11:56:47.817Z,100839.31
2023-04-21T11:59:19.559Z,100845.34
2023-04-21T12:01:47.990Z,100848.56
2023-04-21T12:04:23.008Z,100847.66
2023-04-21T12:07:02.283Z,100852.47
2023-04-21T12:09:30.179Z,100838.78
2023-04-21T12:11:58.996Z,100846.66
2023-04-21T12:14:29.153Z,100830.63
2023-04-21T12:16:57.904Z,100859.38
2023-04-21T12:19:41.582Z,100842.16
2023-04-21T12:22:18.429Z,100833.31
2023-04-21T12:24:46.496Z,100838.69
2023-04-21T12:27:13.813Z,100825.72
2023-04-21T12:29:41.643Z,100834.00
2023-04-21T12:32:09.955Z,100835.16
2023-04-21T12:34:37.443Z,100816.19
2023-04-21T12:37:05.092Z,100827.91
2023-04-21T12:39:32.539Z,100798.63
2023-04-21T12:41:59.966Z,100815.13
2023-04-21T12:44:26.913Z,100803.47
2023-04-21T12:46:53.894Z,100801.56
2023-04-21T12:49:20.830Z,100802.75
2023-04-21T12:51:49.020Z,100822.31
2023-04-21T12:54:16.105Z,100819.31
2023-04-21T12:56:43.124Z,100801.19
2023-04-21T12:59:11.321Z,100807.94
2023-04-21T13:01:40.676Z,100823.41
2023-04-21T13:04:08.100Z,100813.28
2023-04-21T13:06:35.232Z,100808.94
2023-04-21T13:09:02.301Z,100807.59
2023-04-21T13:11:29.224Z,100796.75
2023-04-21T13:13:56.247Z,100800.59
2023-04-21T13:16:24.661Z,100796.44
2023-04-21T13:18:51.678Z,100799.06
2023-04-21T13:21:18.605Z,100765.25
2023-04-21T13:23:46.019Z,100801.28
2023-04-21T13:26:12.949Z,100789.09
2023-04-21T13:28:40.107Z,100772.22
2023-04-21T13:31:07.214Z,100771.28
2023-04-21T13:33:35.239Z,100765.34
2023-04-21T13:36:03.606Z,100774.16
2023-04-21T13:38:30.864Z,100751.94
2023-04-21T13:40:57.887Z,100742.00
2023-04-21T13:43:24.844Z,100752.91
2023-04-21T13:45:52.250Z,100742.31
2023-04-21T13:48:30.101Z,100756.81
2023-04-21T13:50:57.120Z,100724.63
2023-04-21T13:53:24.186Z,100743.81
2023-04-21T13:55:52.900Z,100722.13
2023-04-21T13:58:19.845Z,100730.66
2023-04-21T14:00:46.766Z,100729.34
2023-04-21T14:03:14.145Z,100725.75
2023-04-21T14:05:41.477Z,100707.59
2023-04-21T14:08:09.062Z,100697.41
2023-04-21T14:10:36.060Z,100700.53
2023-04-21T14:13:03.070Z,100703.47
2023-04-21T14:15:30.106Z,100682.00
2023-04-21T14:17:57.554Z,100707.91
2023-04-21T14:20:24.657Z,100703.91
2023-04-21T14:22:51.656Z,100701.00
2023-04-21T14:25:18.670Z,100686.31
2023-04-21T14:27:45.762Z,100693.19
2023-04-21T14:30:14.342Z,100708.97
2023-04-21T14:32:47.293Z,100696.56
2023-04-21T14:35:14.765Z,100700.09
2023-04-21T14:37:41.800Z,100678.06
2023-04-21T14:40:09.511Z,100658.97
2023-04-21T14:42:36.577Z,100697.72
2023-04-21T14:45:03.796Z,100689.19
2023-04-21T14:47:31.059Z,100686.56
2023-04-21T14:49:58.134Z,100678.25
2023-04-21T14:52:26.726Z,100661.34
2023-04-21T14:54:53.757Z,100662.94
2023-04-21T14:57:21.832Z,100652.34
2023-04-21T14:59:51.333Z,100672.47
2023-04-21T15:02:22.224Z,100645.63
2023-04-21T15:04:50.324Z,100666.88
2023-04-21T15:07:22.831Z,100659.97
2023-04-21T15:09:50.966Z,100654.13
2023-04-21T15:12:17.969Z,100658.56
2023-04-21T15:14:44.899Z,100647.25
2023-04-21T15:17:11.984Z,100629.56
2023-04-21T15:19:38.947Z,100636.47
2023-04-21T15:22:05.964Z,100641.19
2023-04-21T15:24:32.872Z,100643.13
2023-04-21T15:27:00.015Z,100619.69
2023-04-21T15:29:26.944Z,100618.53
2023-04-21T15:31:53.897Z,100630.59
2023-04-21T15:34:20.855Z,100631.28
2023-04-21T15:36:47.771Z,100632.91
2023-04-21T15:39:14.842Z,100620.41
2023-04-21T15:41:41.835Z,100608.41
2023-04-21T15:44:08.777Z,100584.50
2023-04-21T15:46:35.727Z,100615.16
2023-04-21T15:49:03.871Z,100619.41
2023-04-21T15:51:34.966Z,100596.63
2023-04-21T15:54:01.906Z,100603.69
2023-04-21T15:56:28.788Z,100597.34
2023-04-21T15:58:57.599Z,100605.16
2023-04-21T16:01:24.907Z,100611.44
2023-04-21T16:03:52.325Z,100599.25
2023-04-21T16:06:21.248Z,100599.06
2023-04-21T16:08:48.444Z,100594.06
2023-04-21T16:11:15.569Z,100590.72
2023-04-21T16:13:42.511Z,100569.03
2023-04-21T16:16:09.507Z,100576.44
2023-04-21T16:18:36.524Z,100575.75
2023-04-21T16:21:03.631Z,100575.69
2023-04-21T16:23:31.164Z,100573.28
2023-04-21T16:25:58.399Z,100563.06
2023-04-21T16:28:25.535Z,100556.53
2023-04-21T16:30:52.496Z,100575.72
2023-04-21T16:33:19.476Z,100572.78
2023-04-21T16:35:46.604Z,100546.41
2023-04-21T16:38:13.752Z,100551.81
2023-04-21T16:40:40.764Z,100560.81
2023-04-21T16:43:07.816Z,100561.50
2023-04-21T16:45:34.857Z,100570.16
2023-04-21T16:48:02.024Z,100563.38
2023-04-21T16:50:29.191Z,100563.59
2023-04-21T16:52:56.108Z,100544.66
2023-04-21T16:55:23.121Z,100561.50
2023-04-21T16:57:50.137Z,100542.75
2023-04-21T17:00:17.379Z,100544.22
2023-04-21T17:02:44.405Z,100536.78
2023-04-21T17:05:15.728Z,100547.13
2023-04-21T17:07:43.167Z,100540.88
2023-04-21T17:10:10.556Z,100555.72
2023-04-21T17:12:37.631Z,100548.53
2023-04-21T17:15:11.852Z,100550.31
2023-04-21T17:17:42.937Z,100546.63
2023-04-21T17:20:12.984Z,100527.44
2023-04-21T17:22:41.148Z,100543.47
2023-04-21T17:25:09.462Z,100551.66
2023-04-21T17:27:38.031Z,100562.94
2023-04-21T17:30:07.186Z,100537.03
2023-04-21T17:32:34.558Z,100542.66
2023-04-21T17:35:02.242Z,100526.78
2023-04-21T17:37:30.179Z,100531.47
2023-04-21T17:39:59.125Z,100537.59
2023-04-21T17:42:28.796Z,100525.00
2023-04-21T17:44:55.735Z,100537.06
2023-04-21T17:47:22.748Z,100524.34
2023-04-21T17:49:49.800Z,100533.84
2023-04-21T17:52:17.250Z,100535.97
2023-04-21T17:54:44.346Z,100523.53
2023-04-21T17:57:11.894Z,100539.28
2023-04-21T17:59:39.591Z,100517.97
2023-04-21T18:02:07.221Z,100522.03
2023-04-21T18:04:34.878Z,100520.22
2023-04-21T18:07:03.057Z,100514.78
2023-04-21T18:09:30.109Z,100535.69
2023-04-21T18:11:58.334Z,100527.53
2023-04-21T18:14:25.712Z,100537.22
2023-04-21T18:16:52.725Z,100536.72
2023-04-21T18:19:19.657Z,100516.31
2023-04-21T18:21:46.539Z,100532.69
2023-04-21T18:24:13.573Z,100532.84
2023-04-21T18:26:40.522Z,100528.78
2023-04-21T18:29:07.422Z,100539.00
2023-04-21T18:31:34.502Z,100509.00
2023-04-21T18:34:01.561Z,100516.50
2023-04-21T18:36:30.700Z,100533.38
2023-04-21T18:38:59.384Z,100524.53
2023-04-21T18:41:27.439Z,100531.16
2023-04-21T18:43:54.865Z,100532.53
2023-04-21T18:46:22.099Z,100515.16
2023-04-21T18:48:49.189Z,100518.16
2023-04-21T18:51:16.107Z,100532.19
2023-04-21T18:53:43.569Z,100530.25
2023-04-21T18:56:10.514Z,100537.94
2023-04-21T18:58:37.491Z,100529.22
2023-04-21T19:01:04.476Z,100537.72
2023-04-21T19:03:31.770Z,100548.63
2023-04-21T19:05:58.884Z,100531.22
2023-04-21T19:08:38.754Z,100551.81
2023-04-21T19:11:10.070Z,100536.66
2023-04-21T19:13:37.011Z,100551.78
2023-04-21T19:16:05.231Z,100552.66
2023-04-21T19:18:32.302Z,100551.44
2023-04-21T19:20:59.185Z,100547.50
2023-04-21T19:23:26.183Z,100538.09
2023-04-21T19:25:55.007Z,100538.94
2023-04-21T19:28:21.972Z,100522.03
2023-04-21T19:30:48.989Z,100531.28
2023-04-21T19:33:16.314Z,100527.00
2023-04-21T19:35:43.524Z,100531.91
2023-04-21T19:38:10.667Z,100533.97
2023-04-21T19:40:37.728Z,100540.72
2023-04-21T19:43:04.847Z,100528.91
2023-04-21T19:45:31.987Z,100554.75
2023-04-21T19:47:59.209Z,100545.22
2023-04-21T19:50:26.781Z,100542.75
2023-04-21T19:52:53.843Z,100531.66
2023-04-21T19:55:24.790Z,100537.50
2023-04-21T19:57:51.776Z,100538.16
2023-04-21T20:00:19.445Z,100521.13
2023-04-21T20:02:46.754Z,100535.44
2023-04-21T20:05:13.783Z,100541.53
2023-04-21T20:07:40.767Z,100536.28
2023-04-21T20:10:08.866Z,100530.78
2023-04-21T20:12:35.918Z,100537.22
2023-04-21T20:15:03.300Z,100529.88
2023-04-21T20:17:31.733Z,100528.59
2023-04-21T20:19:59.118Z,100532.53
2023-04-21T20:22:26.039Z,100540.69
2023-04-21T20:24:53.952Z,100519.28
2023-04-21T20:27:21.005Z,100533.47
2023-04-21T20:29:47.972Z,100537.22
2023-04-21T20:32:17.758Z,100519.47
2023-04-21T20:34:44.681Z,100520.94
2023-04-21T20:37:11.659Z,100518.16
2023-04-21T20:39:38.994Z,100538.78
2023-04-21T20:42:12.960Z,100524.06
2023-04-21T20:44:43.371Z,100524.00
2023-04-21T20:47:11.302Z,100517.72
2023-04-21T20:49:39.987Z,100528.97
2023-04-21T20:52:07.292Z,100533.03
2023-04-21T20:54:34.681Z,100525.16
2023-04-21T20:57:02.234Z,100513.75
2023-04-21T20:59:29.242Z,100517.94
2023-04-21T21:01:56.349Z,100510.25
2023-04-21T21:04:23.579Z,100530.88
2023-04-21T21:06:50.678Z,100496.06
2023-04-21T21:09:18.970Z,100515.44
2023-04-21T21:11:46.340Z,100521.88
2023-04-21T21:14:13.673Z,100530.56
2023-04-21T21:16:40.744Z,100521.03
2023-04-21T21:19:07.766Z,100516.59
2023-04-21T21:21:34.749Z,100504.97
2023-04-21T21:24:01.787Z,100506.22
2023-04-21T21:26:29.315Z,100498.53
2023-04-21T21:28:56.831Z,100519.50
2023-04-21T21:31:25.322Z,100503.25
2023-04-21T21:33:52.428Z,100505.50
2023-04-21T21:36:19.413Z,100491.41
2023-04-21T21:38:46.428Z,100507.84
2023-04-21T21:41:14.171Z,100511.25
2023-04-21T21:43:41.234Z,100507.75
2023-04-21T21:46:08.989Z,100499.63
2023-04-21T21:48:36.097Z,100495.66
2023-04-21T21:51:04.357Z,100490.78
2023-04-21T21:53:32.439Z,100499.63
2023-04-21T21:56:00.344Z,100494.94
2023-04-21T21:58:27.652Z,100494.72
2023-04-21T22:00:55.171Z,100498.09
2023-04-21T22:03:22.450Z,100501.25
2023-04-21T22:05:49.485Z,100484.63
2023-04-21T22:08:16.548Z,100502.69
2023-04-21T22:10:43.956Z,100493.84
2023-04-21T22:13:11.520Z,100505.25
2023-04-21T22:15:38.881Z,100497.63
2023-04-21T22:18:07.392Z,100487.84
2023-04-21T22:20:34.373Z,100508.19
2023-04-21T22:23:01.282Z,100502.34
2023-04-21T22:25:28.188Z,100492.19
2023-04-21T22:27:56.362Z,100500.88
2023-04-21T22:30:24.140Z,100504.13
2023-04-21T22:32:51.139Z,100504.56
2023-04-21T22:35:18.137Z,100498.84
2023-04-21T22:37:45.221Z,100490.34
2023-04-21T22:40:12.403Z,100487.06
2023-04-21T22:42:39.560Z,100502.16
2023-04-21T22:45:07.387Z,100487.34
2023-04-21T22:47:34.640Z,100508.16
2023-04-21T22:50:01.819Z,100496.75
2023-04-21T22:52:28.797Z,100472.00
2023-04-21T22:54:55.724Z,100481.66
2023-04-21T22:57:22.739Z,100490.78
2023-04-21T22:59:49.658Z,100477.41
2023-04-21T23:02:16.795Z,100484.53
2023-04-21T23:04:43.810Z,100512.91
2023-04-21T23:07:10.770Z,100519.78
2023-04-21T23:09:38.126Z,100542.88
2023-04-21T23:12:06.223Z,100511.47
2023-04-21T23:14:33.206Z,100511.03
2023-04-21T23:17:00.273Z,100500.81
2023-04-21T23:19:27.347Z,100505.28
2023-04-21T23:21:54.465Z,100528.50
2023-04-21T23:24:21.351Z,100518.44
2023-04-21T23:26:48.397Z,100521.44
2023-04-21T23:29:15.301Z,100525.69
2023-04-21T23:31:42.320Z,100508.34
2023-04-21T23:36:41.571Z,100499.47
2023-04-21T23:39:09.774Z,100488.69
2023-04-21T23:41:36.978Z,100499.47
2023-04-21T23:44:03.916Z,100508.59
2023-04-21T23:46:31.182Z,100517.28
2023-04-21T23:48:58.135Z,100521.16
2023-04-21T23:51:25.177Z,100516.44
2023-04-21T23:53:52.186Z,100513.91
2023-04-21T23:56:19.125Z,100510.19
2023-04-21T23:58:46.055Z,100520.59
